Time;durP1;ratioP1;P1;durP2;ratioP2;P2;SDS_P1;SDS_P2;PMS_P1;PMS_P2;Temp;Humidity;BMP_temperature;BMP_pressure;BME280_temperature;BME280_humidity;BME280_pressure;Samples;Min_cycle;Max_cycle;Signal;HPM_P1;HPM_P2
2023/10/26 00:00:08;;;;;;;;;;;13.60;62.60;;;;;;4655937;30;114128;-82
2023/10/26 00:02:38;;;;;;;;;;;13.60;62.50;;;;;;4669171;30;114170;-84
2023/10/26 00:05:05;;;;;;;;;;;13.70;62.60;;;;;;4654942;30;114924;-83
2023/10/26 00:07:32;;;;;;;;;;;13.80;62.60;;;;;;4653948;30;115211;-83
2023/10/26 00:09:59;;;;;;;;;;;13.80;62.50;;;;;;4668461;30;114523;-83
2023/10/26 00:12:26;;;;;;;;;;;13.90;62.50;;;;;;4649160;30;114508;-83
2023/10/26 00:14:53;;;;;;;;;;;14.00;62.40;;;;;;4662623;30;114468;-84
2023/10/26 00:17:22;;;;;;;;;;;14.00;62.40;;;;;;4655316;30;114842;-83
2023/10/26 00:19:49;;;;;;;;;;;14.00;62.40;;;;;;4654766;30;114586;-84
2023/10/26 00:22:16;;;;;;;;;;;14.10;62.30;;;;;;4654901;30;114336;-83
2023/10/26 00:24:43;;;;;;;;;;;14.10;62.30;;;;;;4655073;30;115147;-84
2023/10/26 00:27:11;;;;;;;;;;;14.10;62.30;;;;;;4667990;30;114687;-83
2023/10/26 00:29:38;;;;;;;;;;;14.20;62.30;;;;;;4655501;30;114510;-82
2023/10/26 00:32:06;;;;;;;;;;;14.20;62.20;;;;;;4654393;30;114291;-83
2023/10/26 00:34:33;;;;;;;;;;;14.20;62.20;;;;;;4667579;30;115609;-83
2023/10/26 00:37:00;;;;;;;;;;;14.20;61.80;;;;;;4653542;30;114594;-84
2023/10/26 00:39:27;;;;;;;;;;;14.00;61.80;;;;;;4655342;30;114155;-84
2023/10/26 00:41:54;;;;;;;;;;;13.90;62.10;;;;;;4653991;30;114442;-84
2023/10/26 00:44:22;;;;;;;;;;;13.90;62.30;;;;;;4667817;30;115042;-83
2023/10/26 00:46:49;;;;;;;;;;;14.00;62.30;;;;;;4667925;30;114748;-83
2023/10/26 00:49:16;;;;;;;;;;;14.00;62.30;;;;;;4655112;30;114234;-83
2023/10/26 00:51:49;;;;;;;;;;;14.00;62.20;;;;;;4655746;30;114519;-82
2023/10/26 00:54:16;;;;;;;;;;;14.10;62.00;;;;;;4653295;30;114911;-84
2023/10/26 00:56:43;;;;;;;;;;;14.00;62.10;;;;;;4652965;30;115826;-83
2023/10/26 00:59:11;;;;;;;;;;;14.00;62.20;;;;;;4639098;30;114305;-83
2023/10/26 01:01:38;;;;;;;;;;;14.00;62.20;;;;;;4654157;30;114314;-83
2023/10/26 01:04:06;;;;;;;;;;;14.10;62.20;;;;;;4654491;30;115194;-83
2023/10/26 01:06:33;;;;;;;;;;;14.10;62.20;;;;;;4667362;30;114716;-83
2023/10/26 01:09:00;;;;;;;;;;;14.10;62.10;;;;;;4653319;30;114250;-83
2023/10/26 01:11:27;;;;;;;;;;;14.10;62.00;;;;;;4653879;30;114389;-83
2023/10/26 01:13:54;;;;;;;;;;;14.00;61.80;;;;;;4667218;30;116327;-84
2023/10/26 01:16:21;;;;;;;;;;;14.00;61.90;;;;;;4667847;30;114567;-83
2023/10/26 01:18:48;;;;;;;;;;;14.00;62.00;;;;;;4668312;30;114366;-82
2023/10/26 01:21:15;;;;;;;;;;;13.90;62.00;;;;;;4653654;30;114513;-83
2023/10/26 01:23:42;;;;;;;;;;;14.00;62.10;;;;;;4666868;30;115019;-84
2023/10/26 01:26:09;;;;;;;;;;;14.00;62.10;;;;;;4653924;30;114633;-84
2023/10/26 01:28:36;;;;;;;;;;;14.00;62.10;;;;;;4654406;30;114459;-83
2023/10/26 01:31:03;;;;;;;;;;;14.00;62.10;;;;;;4654648;30;114464;-84
2023/10/26 01:33:30;;;;;;;;;;;14.00;62.20;;;;;;4653749;30;115537;-83
2023/10/26 01:35:58;;;;;;;;;;;14.00;62.20;;;;;;4653942;30;114763;-83
2023/10/26 01:38:25;;;;;;;;;;;14.00;62.20;;;;;;4654061;30;114394;-83
2023/10/26 01:40:52;;;;;;;;;;;14.00;62.20;;;;;;4654936;30;114441;-83
2023/10/26 01:43:19;;;;;;;;;;;14.00;62.20;;;;;;4666792;30;116884;-83
2023/10/26 01:45:46;;;;;;;;;;;14.00;62.20;;;;;;4666845;30;114954;-83
2023/10/26 01:48:13;;;;;;;;;;;14.00;62.20;;;;;;4653010;30;114515;-83
2023/10/26 01:50:40;;;;;;;;;;;14.10;62.10;;;;;;4654826;30;114422;-83
2023/10/26 01:53:07;;;;;;;;;;;14.00;62.10;;;;;;4653638;30;115053;-83
2023/10/26 01:55:34;;;;;;;;;;;14.00;62.10;;;;;;4652279;30;116043;-83
2023/10/26 01:58:01;;;;;;;;;;;14.00;62.20;;;;;;4667642;30;114417;-83
2023/10/26 02:00:28;;;;;;;;;;;14.00;62.00;;;;;;4667971;30;114309;-83
2023/10/26 02:02:55;;;;;;;;;;;14.00;62.10;;;;;;4656810;30;115127;-83
2023/10/26 02:05:23;;;;;;;;;;;14.00;62.20;;;;;;4673333;30;114780;-83
2023/10/26 02:07:50;;;;;;;;;;;14.00;62.30;;;;;;4668181;30;114352;-83
2023/10/26 02:10:18;;;;;;;;;;;14.00;62.30;;;;;;4654268;30;114488;-82
2023/10/26 02:12:45;;;;;;;;;;;14.00;62.30;;;;;;4652690;30;114187;-83
2023/10/26 02:15:12;;;;;;;;;;;14.00;62.30;;;;;;4653458;30;114513;-83
2023/10/26 02:17:39;;;;;;;;;;;14.00;62.30;;;;;;4667564;30;114244;-83
2023/10/26 02:20:06;;;;;;;;;;;14.00;62.20;;;;;;4667562;30;114364;-84
2023/10/26 02:22:33;;;;;;;;;;;14.00;62.20;;;;;;4653421;30;114988;-83
2023/10/26 02:25:00;;;;;;;;;;;14.00;62.30;;;;;;4652164;30;114663;-83
2023/10/26 02:27:28;;;;;;;;;;;14.00;62.20;;;;;;4667346;30;114145;-84
2023/10/26 02:29:55;;;;;;;;;;;14.00;62.20;;;;;;4667004;30;114458;-83
2023/10/26 02:32:22;;;;;;;;;;;14.00;62.20;;;;;;4652910;30;115681;-84
2023/10/26 02:34:51;;;;;;;;;;;14.00;62.20;;;;;;4653167;30;116312;-83
2023/10/26 02:37:18;;;;;;;;;;;14.00;62.30;;;;;;4653545;30;114152;-83
2023/10/26 02:39:45;;;;;;;;;;;14.00;62.30;;;;;;4654056;30;114225;-82
2023/10/26 02:42:13;;;;;;;;;;;14.00;62.30;;;;;;4637153;30;116892;-82
2023/10/26 02:44:40;;;;;;;;;;;14.00;62.30;;;;;;4666353;30;114698;-83
2023/10/26 02:47:08;;;;;;;;;;;14.00;62.30;;;;;;4652595;30;114642;-83
2023/10/26 02:49:35;;;;;;;;;;;14.00;62.20;;;;;;4653616;30;114083;-83
2023/10/26 02:52:02;;;;;;;;;;;14.00;62.10;;;;;;4651183;30;117360;-82
2023/10/26 02:54:29;;;;;;;;;;;14.00;62.20;;;;;;4652066;30;116872;-82
2023/10/26 02:56:56;;;;;;;;;;;13.90;62.10;;;;;;4637967;30;114282;-82
2023/10/26 02:59:23;;;;;;;;;;;14.00;62.20;;;;;;4652722;30;114330;-82
2023/10/26 03:01:51;;;;;;;;;;;14.00;62.20;;;;;;4665619;30;115286;-82
2023/10/26 03:04:19;;;;;;;;;;;13.90;62.30;;;;;;4652826;30;114659;-84
2023/10/26 03:06:46;;;;;;;;;;;13.90;62.30;;;;;;4653556;30;114303;-84
2023/10/26 03:09:13;;;;;;;;;;;14.00;62.30;;;;;;4652549;30;114465;-84
2023/10/26 03:11:42;;;;;;;;;;;14.00;62.30;;;;;;4651712;30;114936;-83
2023/10/26 03:14:09;;;;;;;;;;;14.00;62.40;;;;;;4651554;30;114969;-82
2023/10/26 03:16:36;;;;;;;;;;;14.00;62.30;;;;;;4652504;30;114190;-83
2023/10/26 03:19:06;;;;;;;;;;;14.10;62.40;;;;;;4653985;30;114123;-83
2023/10/26 03:21:33;;;;;;;;;;;14.00;62.30;;;;;;4666325;30;115061;-83
2023/10/26 03:24:00;;;;;;;;;;;14.00;62.20;;;;;;4652810;30;114634;-83
2023/10/26 03:26:27;;;;;;;;;;;14.00;62.10;;;;;;4653070;30;114427;-83
2023/10/26 03:28:54;;;;;;;;;;;14.00;62.10;;;;;;4651367;30;114375;-82
2023/10/26 03:31:22;;;;;;;;;;;14.00;62.10;;;;;;4665746;30;114853;-82
2023/10/26 03:33:49;;;;;;;;;;;13.90;62.20;;;;;;4652725;30;114838;-81
2023/10/26 03:36:18;;;;;;;;;;;14.00;62.20;;;;;;4666451;30;114243;-82
2023/10/26 03:38:46;;;;;;;;;;;14.00;62.30;;;;;;4653788;30;114460;-83
2023/10/26 03:41:14;;;;;;;;;;;14.00;62.30;;;;;;4651637;30;115119;-83
2023/10/26 03:43:41;;;;;;;;;;;14.00;62.20;;;;;;4666656;30;114833;-83
2023/10/26 03:46:10;;;;;;;;;;;14.00;62.10;;;;;;4666912;30;114200;-83
2023/10/26 03:48:38;;;;;;;;;;;13.90;61.80;;;;;;4653221;30;114491;-82
2023/10/26 03:51:05;;;;;;;;;;;13.80;62.00;;;;;;4652503;30;114950;-83
2023/10/26 03:53:33;;;;;;;;;;;13.80;62.20;;;;;;4654557;30;114599;-83
2023/10/26 03:56:01;;;;;;;;;;;13.80;62.30;;;;;;4654706;30;114408;-83
2023/10/26 03:58:28;;;;;;;;;;;13.90;62.30;;;;;;4652809;30;114481;-83
2023/10/26 04:00:56;;;;;;;;;;;13.90;62.30;;;;;;4653251;30;114914;-83
2023/10/26 04:03:23;;;;;;;;;;;13.90;62.20;;;;;;4654761;30;114893;-83
2023/10/26 04:05:51;;;;;;;;;;;13.80;62.00;;;;;;4670636;30;114833;-84
2023/10/26 04:08:18;;;;;;;;;;;13.80;62.20;;;;;;4655948;30;114476;-84
2023/10/26 04:10:50;;;;;;;;;;;13.70;62.10;;;;;;4649518;30;114961;-82
2023/10/26 04:13:17;;;;;;;;;;;13.70;62.10;;;;;;4638406;30;116039;-84
2023/10/26 04:15:44;;;;;;;;;;;13.50;62.20;;;;;;4638760;30;114482;-84
2023/10/26 04:18:11;;;;;;;;;;;13.50;62.50;;;;;;4638989;30;114509;-84
2023/10/26 04:20:39;;;;;;;;;;;13.50;62.70;;;;;;4651402;30;117932;-84
2023/10/26 04:23:06;;;;;;;;;;;13.60;62.80;;;;;;4638897;30;115070;-83
2023/10/26 04:25:34;;;;;;;;;;;13.60;62.80;;;;;;4637824;30;114302;-83
2023/10/26 04:28:20;;;;;;;;;;;13.70;62.80;;;;;;4639664;30;114089;-83
2023/10/26 04:30:47;;;;;;;;;;;13.70;62.80;;;;;;4636533;30;117872;-82
2023/10/26 04:33:14;;;;;;;;;;;13.70;62.90;;;;;;4638858;30;115262;-82
2023/10/26 04:35:42;;;;;;;;;;;13.70;62.80;;;;;;4637986;30;114221;-83
2023/10/26 04:38:09;;;;;;;;;;;13.70;62.90;;;;;;4652040;30;114400;-82
2023/10/26 04:40:40;;;;;;;;;;;13.70;62.80;;;;;;4634755;30;114824;-83
2023/10/26 04:43:07;;;;;;;;;;;13.50;63.80;;;;;;4643252;30;117656;-83
2023/10/26 04:45:34;;;;;;;;;;;13.20;64.00;;;;;;4642614;30;114559;-84
2023/10/26 04:48:01;;;;;;;;;;;12.90;64.70;;;;;;4644666;30;114574;-83
2023/10/26 04:50:32;;;;;;;;;;;12.70;64.60;;;;;;4655984;30;115482;-83
2023/10/26 04:52:59;;;;;;;;;;;12.70;64.80;;;;;;4635795;30;115014;-83
2023/10/26 04:55:35;;;;;;;;;;;12.80;64.80;;;;;;4650943;30;114546;-83
2023/10/26 04:58:02;;;;;;;;;;;12.90;64.80;;;;;;4638789;30;114149;-84
2023/10/26 05:00:30;;;;;;;;;;;13.10;64.60;;;;;;4650356;30;114992;-83
2023/10/26 05:02:58;;;;;;;;;;;13.10;64.50;;;;;;4636288;30;115656;-84
2023/10/26 05:05:25;;;;;;;;;;;13.00;64.50;;;;;;4651080;30;114491;-83
2023/10/26 05:07:52;;;;;;;;;;;13.10;64.60;;;;;;4651327;30;114578;-83
2023/10/26 05:10:20;;;;;;;;;;;13.20;64.60;;;;;;4650549;30;115646;-83
2023/10/26 05:12:47;;;;;;;;;;;13.30;64.40;;;;;;4634523;30;114723;-83
2023/10/26 05:15:14;;;;;;;;;;;13.40;64.30;;;;;;4657341;30;114493;-83
2023/10/26 05:17:42;;;;;;;;;;;13.40;64.00;;;;;;4636148;30;114253;-84
2023/10/26 05:20:09;;;;;;;;;;;13.40;64.20;;;;;;4636390;30;114988;-83
2023/10/26 05:22:36;;;;;;;;;;;13.40;64.20;;;;;;4633358;30;114681;-85
2023/10/26 05:25:10;;;;;;;;;;;13.50;64.10;;;;;;4637119;30;114218;-83
2023/10/26 05:27:37;;;;;;;;;;;13.50;64.10;;;;;;4636123;30;114274;-83
2023/10/26 05:30:05;;;;;;;;;;;13.60;64.10;;;;;;4641048;30;116145;-85
2023/10/26 05:32:32;;;;;;;;;;;13.60;64.00;;;;;;4636184;30;114599;-84
2023/10/26 05:35:02;;;;;;;;;;;13.60;63.90;;;;;;4608619;30;114410;-83
2023/10/26 05:37:29;;;;;;;;;;;13.70;63.90;;;;;;4637843;30;114403;-82
2023/10/26 05:39:56;;;;;;;;;;;13.70;63.80;;;;;;4638781;30;115213;-81
2023/10/26 05:42:23;;;;;;;;;;;13.70;63.80;;;;;;4636423;30;114973;-81
2023/10/26 05:44:50;;;;;;;;;;;13.70;63.50;;;;;;4638800;30;114104;-82
2023/10/26 05:47:17;;;;;;;;;;;13.50;63.50;;;;;;4638107;30;114299;-83
2023/10/26 05:49:48;;;;;;;;;;;13.40;63.40;;;;;;4650333;30;116105;-82
2023/10/26 05:52:15;;;;;;;;;;;13.30;63.60;;;;;;4638790;30;115148;-83
2023/10/26 05:54:42;;;;;;;;;;;13.20;63.60;;;;;;4636824;30;114372;-84
2023/10/26 05:57:09;;;;;;;;;;;13.20;63.50;;;;;;4631013;30;114596;-82
2023/10/26 05:59:37;;;;;;;;;;;13.20;63.30;;;;;;4635302;30;116921;-83
2023/10/26 06:02:04;;;;;;;;;;;13.10;63.20;;;;;;4641010;30;114625;-82
2023/10/26 06:04:31;;;;;;;;;;;13.10;63.30;;;;;;4650355;30;114658;-83
2023/10/26 06:06:59;;;;;;;;;;;13.10;63.40;;;;;;4642477;30;114402;-84
2023/10/26 06:09:26;;;;;;;;;;;13.20;63.30;;;;;;4637673;30;114832;-83
2023/10/26 06:11:53;;;;;;;;;;;13.20;63.40;;;;;;4632779;30;114648;-84
2023/10/26 06:14:20;;;;;;;;;;;13.30;63.40;;;;;;4642898;30;114266;-84
2023/10/26 06:16:47;;;;;;;;;;;13.40;63.30;;;;;;4662672;30;114784;-82
2023/10/26 06:19:14;;;;;;;;;;;13.50;63.00;;;;;;4634227;30;114991;-84
2023/10/26 06:21:41;;;;;;;;;;;13.50;63.10;;;;;;4634993;30;114713;-83
2023/10/26 06:24:09;;;;;;;;;;;13.50;63.00;;;;;;4636439;30;114316;-84
2023/10/26 06:26:36;;;;;;;;;;;13.60;63.10;;;;;;4636388;30;114546;-83
2023/10/26 06:29:03;;;;;;;;;;;13.70;63.20;;;;;;4635612;30;115250;-83
2023/10/26 06:31:30;;;;;;;;;;;13.70;63.00;;;;;;4635765;30;114555;-83
2023/10/26 06:34:00;;;;;;;;;;;13.70;63.10;;;;;;4650352;30;114400;-84
2023/10/26 06:36:27;;;;;;;;;;;13.80;62.90;;;;;;4635702;30;114396;-84
2023/10/26 06:38:56;;;;;;;;;;;13.80;63.00;;;;;;4635690;30;114926;-82
2023/10/26 06:41:23;;;;;;;;;;;13.80;62.90;;;;;;4648167;30;115871;-82
2023/10/26 06:43:51;;;;;;;;;;;13.90;62.90;;;;;;4635867;30;114396;-83
2023/10/26 06:46:19;;;;;;;;;;;14.00;62.90;;;;;;4648792;30;114237;-83
2023/10/26 06:48:46;;;;;;;;;;;14.00;62.90;;;;;;4634392;30;115761;-83
2023/10/26 06:51:22;;;;;;;;;;;14.00;62.90;;;;;;4635126;30;116136;-81
2023/10/26 06:53:49;;;;;;;;;;;14.10;62.90;;;;;;4635111;30;114293;-84
2023/10/26 06:56:16;;;;;;;;;;;14.10;62.70;;;;;;4636145;30;114450;-84
2023/10/26 06:58:44;;;;;;;;;;;14.10;62.70;;;;;;4633771;30;115661;-82
2023/10/26 07:01:10;;;;;;;;;;;14.10;62.40;;;;;;4635761;30;114658;-83
2023/10/26 07:03:47;;;;;;;;;;;14.10;62.50;;;;;;4636396;30;114210;-83
2023/10/26 07:06:15;;;;;;;;;;;14.10;62.50;;;;;;4649112;30;114377;-83
2023/10/26 07:08:42;;;;;;;;;;;14.10;62.50;;;;;;4634894;30;116380;-82
2023/10/26 07:11:09;;;;;;;;;;;14.20;62.40;;;;;;4634972;30;115027;-83
2023/10/26 07:13:36;;;;;;;;;;;14.10;62.30;;;;;;4648601;30;114515;-83
2023/10/26 07:16:04;;;;;;;;;;;14.20;62.40;;;;;;4646314;30;114687;-83
2023/10/26 07:18:37;;;;;;;;;;;14.20;62.20;;;;;;4648572;30;119104;-84
2023/10/26 07:21:05;;;;;;;;;;;14.20;62.20;;;;;;4647689;30;116861;-84
2023/10/26 07:23:33;;;;;;;;;;;14.20;62.30;;;;;;4636068;30;114112;-83
2023/10/26 07:26:00;;;;;;;;;;;14.30;62.30;;;;;;4635427;30;114391;-84
2023/10/26 07:28:28;;;;;;;;;;;14.30;62.20;;;;;;4648246;30;115216;-84
2023/10/26 07:30:55;;;;;;;;;;;14.40;61.90;;;;;;4634746;30;114905;-84
2023/10/26 07:33:22;;;;;;;;;;;14.40;61.80;;;;;;4637508;30;114532;-84
2023/10/26 07:35:50;;;;;;;;;;;14.40;61.80;;;;;;4653315;30;114307;-83
2023/10/26 07:38:17;;;;;;;;;;;14.40;61.80;;;;;;4634489;30;116038;-84
2023/10/26 07:41:04;;;;;;;;;;;14.40;61.70;;;;;;4621570;30;115106;-84
2023/10/26 07:43:33;;;;;;;;;;;14.40;61.70;;;;;;4636898;30;114326;-83
2023/10/26 07:46:00;;;;;;;;;;;14.50;61.70;;;;;;4639214;30;114229;-85
2023/10/26 07:48:28;;;;;;;;;;;14.50;61.50;;;;;;4650266;30;115820;-82
2023/10/26 07:50:55;;;;;;;;;;;14.40;61.30;;;;;;4636794;30;116442;-84
2023/10/26 07:53:23;;;;;;;;;;;14.40;61.50;;;;;;4639139;30;114526;-83
2023/10/26 07:55:56;;;;;;;;;;;14.40;61.40;;;;;;4637969;30;114231;-83
2023/10/26 07:58:29;;;;;;;;;;;14.30;61.00;;;;;;4635963;30;116948;-83
2023/10/26 08:00:56;;;;;;;;;;;14.30;61.40;;;;;;4637748;30;115259;-82
2023/10/26 08:03:27;;;;;;;;;;;14.30;61.40;;;;;;4636506;30;114692;-84
2023/10/26 08:05:59;;;;;;;;;;;14.40;61.40;;;;;;4652007;30;114498;-83
2023/10/26 08:08:27;;;;;;;;;;;14.40;61.10;;;;;;4635377;30;116198;-83
2023/10/26 08:11:10;;;;;;;;;;;14.50;61.20;;;;;;4635880;30;115416;-83
2023/10/26 08:13:37;;;;;;;;;;;14.60;61.10;;;;;;4638470;30;114264;-84
2023/10/26 08:16:05;;;;;;;;;;;14.60;60.90;;;;;;4639053;30;114271;-84
2023/10/26 08:18:52;;;;;;;;;;;14.70;60.70;;;;;;4637231;30;115074;-84
2023/10/26 08:21:20;;;;;;;;;;;14.70;60.70;;;;;;4636563;30;114732;-83
2023/10/26 08:23:47;;;;;;;;;;;14.70;60.60;;;;;;4651201;30;114465;-82
2023/10/26 08:26:15;;;;;;;;;;;14.60;60.60;;;;;;4637448;30;114187;-82
2023/10/26 08:28:42;;;;;;;;;;;14.60;60.50;;;;;;4637490;30;114787;-83
2023/10/26 08:31:09;;;;;;;;;;;14.50;60.60;;;;;;4636336;30;114657;-82
2023/10/26 08:33:36;;;;;;;;;;;14.50;60.70;;;;;;4638141;30;114373;-82
2023/10/26 08:36:04;;;;;;;;;;;14.60;60.80;;;;;;4638153;30;114194;-81
2023/10/26 08:38:32;;;;;;;;;;;14.60;60.80;;;;;;4637390;30;117553;-83
2023/10/26 08:41:00;;;;;;;;;;;14.70;60.80;;;;;;4636839;30;116171;-83
2023/10/26 08:43:27;;;;;;;;;;;14.90;60.70;;;;;;4637068;30;114383;-83
2023/10/26 08:45:55;;;;;;;;;;;14.90;60.40;;;;;;4636760;30;114351;-83
2023/10/26 08:48:22;;;;;;;;;;;15.00;60.20;;;;;;4649602;30;115066;-83
2023/10/26 08:50:49;;;;;;;;;;;15.10;60.20;;;;;;4636274;30;115087;-83
2023/10/26 08:53:16;;;;;;;;;;;15.20;59.90;;;;;;4636686;30;114351;-83
2023/10/26 08:55:43;;;;;;;;;;;15.20;59.90;;;;;;4636632;30;114436;-83
2023/10/26 08:58:10;;;;;;;;;;;15.20;59.60;;;;;;4620921;30;117495;-83
2023/10/26 09:00:41;;;;;;;;;;;15.20;59.40;;;;;;4636882;30;114657;-83
2023/10/26 09:03:09;;;;;;;;;;;15.00;59.30;;;;;;4637975;30;114321;-83
2023/10/26 09:05:53;;;;;;;;;;;15.00;59.50;;;;;;4650845;30;114812;-83
2023/10/26 09:08:22;;;;;;;;;;;14.90;58.90;;;;;;4636934;30;114897;-83
2023/10/26 09:10:50;;;;;;;;;;;14.80;59.20;;;;;;4649938;30;114615;-84
2023/10/26 09:13:24;;;;;;;;;;;14.70;59.30;;;;;;4637237;30;114270;-83
2023/10/26 09:15:55;;;;;;;;;;;14.70;59.40;;;;;;4650043;30;114372;-83
2023/10/26 09:18:25;;;;;;;;;;;14.60;59.10;;;;;;4635069;30;115006;-81
2023/10/26 09:21:03;;;;;;;;;;;14.60;59.10;;;;;;4638581;30;114607;-82
2023/10/26 09:23:31;;;;;;;;;;;14.50;59.30;;;;;;4644005;30;115158;-82
2023/10/26 09:26:03;;;;;;;;;;;14.50;59.40;;;;;;4654481;30;114511;-82
2023/10/26 09:28:50;;;;;;;;;;;14.50;59.30;;;;;;4638538;30;119036;-83
2023/10/26 09:31:17;;;;;;;;;;;14.50;59.20;;;;;;4650258;30;114631;-82
2023/10/26 09:33:45;;;;;;;;;;;14.40;59.30;;;;;;4638257;30;114150;-82
2023/10/26 09:36:15;;;;;;;;;;;14.40;59.30;;;;;;4637920;30;114258;-82
2023/10/26 09:38:42;;;;;;;;;;;14.50;59.40;;;;;;4649279;30;115970;-82
2023/10/26 09:41:15;;;;;;;;;;;14.50;59.50;;;;;;4650247;30;115142;-83
2023/10/26 09:43:42;;;;;;;;;;;14.60;59.40;;;;;;4637555;30;114254;-83
2023/10/26 09:46:13;;;;;;;;;;;14.70;59.60;;;;;;4637956;30;114364;-82
2023/10/26 09:48:40;;;;;;;;;;;14.80;59.60;;;;;;4649858;30;114901;-82
2023/10/26 09:51:09;;;;;;;;;;;14.90;59.50;;;;;;4636317;30;115777;-84
2023/10/26 09:53:38;;;;;;;;;;;15.00;59.20;;;;;;4637505;30;114208;-82
2023/10/26 09:56:05;;;;;;;;;;;15.10;59.10;;;;;;4636820;30;114506;-84
2023/10/26 09:58:39;;;;;;;;;;;15.20;59.10;;;;;;4649455;30;114995;-83
2023/10/26 10:01:40;;;;;;;;;;;15.30;59.00;;;;;;4636059;30;115169;-83
2023/10/26 10:04:07;;;;;;;;;;;15.40;59.20;;;;;;4625952;30;114516;-83
2023/10/26 10:06:53;;;;;;;;;;;15.50;59.00;;;;;;4650114;30;114852;-83
2023/10/26 10:09:21;;;;;;;;;;;15.60;58.90;;;;;;4636396;30;115048;-81
2023/10/26 10:12:05;;;;;;;;;;;15.80;58.60;;;;;;4636044;30;114732;-82
2023/10/26 10:14:48;;;;;;;;;;;15.80;58.20;;;;;;4637019;30;114335;-83
2023/10/26 10:17:15;;;;;;;;;;;15.80;57.90;;;;;;4636958;30;114439;-83
2023/10/26 10:19:45;;;;;;;;;;;15.80;57.80;;;;;;4620501;30;117701;-83
2023/10/26 10:22:32;;;;;;;;;;;15.80;57.50;;;;;;4634744;30;115019;-82
2023/10/26 10:24:59;;;;;;;;;;;15.80;57.00;;;;;;4636870;30;114541;-82
2023/10/26 10:27:29;;;;;;;;;;;15.90;57.00;;;;;;4636427;30;114446;-82
2023/10/26 10:29:56;;;;;;;;;;;15.80;56.30;;;;;;4648159;30;115315;-82
2023/10/26 10:32:42;;;;;;;;;;;15.80;56.60;;;;;;4620273;30;116807;-82
2023/10/26 10:35:25;;;;;;;;;;;15.80;56.60;;;;;;4636473;30;114312;-83
2023/10/26 10:38:10;;;;;;;;;;;15.80;56.30;;;;;;4636815;30;114394;-84
2023/10/26 10:40:38;;;;;;;;;;;15.80;56.50;;;;;;4635683;30;115345;-82
2023/10/26 10:43:05;;;;;;;;;;;15.80;56.60;;;;;;4636050;30;115765;-82
2023/10/26 10:45:32;;;;;;;;;;;15.80;56.80;;;;;;4648449;30;114379;-83
2023/10/26 10:47:59;;;;;;;;;;;15.80;56.30;;;;;;4648536;30;114182;-82
2023/10/26 10:50:27;;;;;;;;;;;15.80;56.30;;;;;;4649068;30;115064;-83
2023/10/26 10:52:54;;;;;;;;;;;15.80;56.40;;;;;;4635929;30;114664;-83
2023/10/26 10:55:24;;;;;;;;;;;15.80;56.30;;;;;;4649064;30;114467;-83
2023/10/26 10:57:59;;;;;;;;;;;15.80;56.40;;;;;;4636812;30;114306;-82
2023/10/26 11:00:27;;;;;;;;;;;15.80;56.20;;;;;;4625081;30;116101;-83
2023/10/26 11:02:57;;;;;;;;;;;15.70;56.00;;;;;;4642364;30;114733;-83
2023/10/26 11:05:37;;;;;;;;;;;15.70;56.10;;;;;;4645932;30;114225;-82
2023/10/26 11:08:05;;;;;;;;;;;15.70;55.90;;;;;;4649041;30;114416;-83
2023/10/26 11:10:32;;;;;;;;;;;15.70;56.00;;;;;;4639804;30;114973;-82
2023/10/26 11:12:59;;;;;;;;;;;15.70;55.50;;;;;;4645032;30;114627;-82
2023/10/26 11:15:33;;;;;;;;;;;15.60;55.70;;;;;;4642136;30;114487;-83
2023/10/26 11:18:01;;;;;;;;;;;15.50;55.90;;;;;;4643119;30;114264;-83
2023/10/26 11:20:38;;;;;;;;;;;15.50;56.00;;;;;;4628191;30;114512;-83
2023/10/26 11:23:08;;;;;;;;;;;15.50;55.80;;;;;;4658628;30;114583;-84
2023/10/26 11:25:35;;;;;;;;;;;15.50;55.80;;;;;;4636632;30;114315;-83
2023/10/26 11:28:03;;;;;;;;;;;15.50;56.00;;;;;;4600085;30;114545;-83
2023/10/26 11:30:30;;;;;;;;;;;15.50;56.00;;;;;;4646257;30;114980;-82
2023/10/26 11:32:59;;;;;;;;;;;15.60;55.80;;;;;;4644118;30;115137;-82
2023/10/26 11:35:26;;;;;;;;;;;15.60;55.90;;;;;;4635831;30;118077;-83
2023/10/26 11:37:54;;;;;;;;;;;15.60;55.80;;;;;;4630273;30;114637;-82
2023/10/26 11:40:31;;;;;;;;;;;15.60;55.60;;;;;;4652989;30;118433;-83
2023/10/26 11:42:59;;;;;;;;;;;15.60;55.70;;;;;;4636003;30;114624;-84
2023/10/26 11:45:27;;;;;;;;;;;15.60;55.80;;;;;;4649385;30;114315;-84
2023/10/26 11:47:54;;;;;;;;;;;15.60;55.90;;;;;;4641228;30;114364;-82
2023/10/26 11:50:35;;;;;;;;;;;15.60;55.80;;;;;;4650819;30;115359;-82
2023/10/26 11:53:03;;;;;;;;;;;15.50;55.60;;;;;;4642591;30;115589;-82
2023/10/26 11:55:31;;;;;;;;;;;15.50;55.70;;;;;;4649484;30;114950;-83
2023/10/26 11:57:59;;;;;;;;;;;15.40;55.70;;;;;;4636769;30;114495;-83
2023/10/26 12:00:26;;;;;;;;;;;15.40;55.90;;;;;;4637801;30;115625;-83
2023/10/26 12:02:54;;;;;;;;;;;15.50;55.80;;;;;;4658116;30;114867;-83
2023/10/26 12:05:24;;;;;;;;;;;15.50;56.10;;;;;;4619564;30;114494;-81
2023/10/26 12:07:52;;;;;;;;;;;15.60;56.00;;;;;;4632155;30;114398;-82
2023/10/26 12:10:20;;;;;;;;;;;15.70;56.00;;;;;;4619716;30;117839;-83
2023/10/26 12:12:48;;;;;;;;;;;15.70;55.90;;;;;;4647134;30;116354;-83
2023/10/26 12:15:16;;;;;;;;;;;15.70;55.90;;;;;;4639341;30;114666;-82
2023/10/26 12:17:43;;;;;;;;;;;15.70;55.70;;;;;;4639540;30;115957;-84
2023/10/26 12:20:11;;;;;;;;;;;15.70;55.80;;;;;;4643971;30;115353;-83
2023/10/26 12:22:39;;;;;;;;;;;15.60;55.70;;;;;;4645700;30;114755;-83
2023/10/26 12:25:07;;;;;;;;;;;15.60;55.50;;;;;;4655251;30;114559;-83
2023/10/26 12:27:35;;;;;;;;;;;15.50;55.80;;;;;;4647045;30;114566;-84
2023/10/26 12:30:25;;;;;;;;;;;15.50;55.80;;;;;;4635494;30;115004;-82
2023/10/26 12:32:53;;;;;;;;;;;15.60;55.90;;;;;;4636390;30;115909;-83
2023/10/26 12:35:23;;;;;;;;;;;15.60;55.60;;;;;;4639759;30;114368;-84
2023/10/26 12:37:51;;;;;;;;;;;15.50;55.40;;;;;;4657302;30;114501;-84
2023/10/26 12:40:20;;;;;;;;;;;15.40;55.60;;;;;;4653799;30;114932;-82
2023/10/26 12:42:47;;;;;;;;;;;15.40;55.70;;;;;;4642624;30;114726;-84
2023/10/26 12:45:17;;;;;;;;;;;15.40;55.70;;;;;;4646311;30;114316;-83
2023/10/26 12:47:44;;;;;;;;;;;15.40;55.70;;;;;;4630090;30;114343;-82
2023/10/26 12:50:12;;;;;;;;;;;15.30;55.90;;;;;;4643669;30;114540;-81
2023/10/26 12:52:39;;;;;;;;;;;15.40;55.80;;;;;;4657712;30;114700;-82
2023/10/26 12:55:07;;;;;;;;;;;15.40;56.00;;;;;;4636161;30;114555;-84
2023/10/26 12:57:39;;;;;;;;;;;15.40;55.90;;;;;;4657035;30;114481;-83
2023/10/26 13:00:07;;;;;;;;;;;15.40;55.90;;;;;;4643180;30;115812;-82
2023/10/26 13:02:36;;;;;;;;;;;15.40;55.80;;;;;;4640357;30;115784;-81
2023/10/26 13:05:03;;;;;;;;;;;15.30;55.80;;;;;;4652841;30;118215;-83
2023/10/26 13:07:31;;;;;;;;;;;15.30;56.10;;;;;;4654200;30;114492;-82
2023/10/26 13:09:58;;;;;;;;;;;15.30;56.00;;;;;;4637520;30;115068;-83
2023/10/26 13:12:25;;;;;;;;;;;15.30;56.30;;;;;;4651550;30;117792;-82
2023/10/26 13:14:52;;;;;;;;;;;15.30;56.10;;;;;;4653514;30;114275;-81
2023/10/26 13:17:30;;;;;;;;;;;15.30;56.00;;;;;;4648710;30;114605;-82
2023/10/26 13:19:57;;;;;;;;;;;15.30;55.80;;;;;;4638135;30;114800;-83
2023/10/26 13:22:24;;;;;;;;;;;15.20;55.90;;;;;;4644874;30;114620;-84
2023/10/26 13:24:51;;;;;;;;;;;15.20;56.10;;;;;;4646262;30;114325;-83
2023/10/26 13:27:19;;;;;;;;;;;15.20;56.10;;;;;;4640417;30;114817;-83
2023/10/26 13:29:46;;;;;;;;;;;15.20;56.10;;;;;;4657288;30;115590;-82
2023/10/26 13:32:13;;;;;;;;;;;15.30;56.10;;;;;;4639825;30;114454;-83
2023/10/26 13:34:40;;;;;;;;;;;15.20;56.10;;;;;;4635995;30;114459;-83
2023/10/26 13:37:07;;;;;;;;;;;15.30;56.10;;;;;;4646767;30;114474;-83
2023/10/26 13:39:37;;;;;;;;;;;15.30;55.90;;;;;;4625227;30;135718;-82
2023/10/26 13:42:04;;;;;;;;;;;15.20;56.10;;;;;;4640250;30;115841;-83
2023/10/26 13:44:31;;;;;;;;;;;15.30;56.10;;;;;;4638702;30;114418;-84
2023/10/26 13:46:58;;;;;;;;;;;15.30;56.20;;;;;;4642666;30;114529;-84
2023/10/26 13:49:26;;;;;;;;;;;15.30;56.20;;;;;;4654902;30;115002;-83
2023/10/26 13:51:53;;;;;;;;;;;15.30;56.40;;;;;;4647178;30;117486;-83
2023/10/26 13:54:21;;;;;;;;;;;15.40;56.40;;;;;;4646364;30;114413;-81
2023/10/26 13:56:50;;;;;;;;;;;15.40;56.30;;;;;;4644476;30;114251;-84
2023/10/26 13:59:18;;;;;;;;;;;15.40;56.10;;;;;;4605023;30;117053;-83
2023/10/26 14:01:45;;;;;;;;;;;15.30;56.00;;;;;;4638050;30;114822;-84
2023/10/26 14:04:14;;;;;;;;;;;15.30;56.00;;;;;;4643450;30;114638;-83
2023/10/26 14:06:41;;;;;;;;;;;15.30;56.00;;;;;;4638094;30;114435;-83
2023/10/26 14:09:08;;;;;;;;;;;15.30;56.00;;;;;;4643165;30;114927;-83
2023/10/26 14:11:35;;;;;;;;;;;15.30;56.00;;;;;;4644302;30;114590;-84